Alle Lego sets met een set nummer van 41000 tot 42000

Sorteer op
Titel van setPrijsVerschilToegevoegd
Plezier op het water (41000)€ 5,49- € 0,50 (8%)2012-12-17
Mia's Magic Tricks (41001)€ 9,50- € 0,49 (5%)2012-12-17
Emma's Karate Class (41002)€ 9,95- € 0,04 (0%)2012-12-17
Olivia's veulentje (41003)€ 9,95- € 0,04 (0%)2012-12-17
Oefenzaal (41004)€ 17,50- € 2,49 (12%)2012-12-17
Andrea’s slaapkamer (41009)€ 11,00- € 0,47 (4%)2013-07-31
Olivia’s strandbuggy (41010)€ 9,50- € 1,97 (17%)2013-07-31
Stephanie's Soccer Practice (41011)€ 9,50- € 0,49 (5%)2012-12-17
Emma’s sportwagen (41013)€ 17,50+ € 2,51 (17%)2013-08-01
Squirrel's Tree House (41017)€ 4,95+ € 0,96 (24%)2012-12-17
Cat's Playground (41018)€ 4,95+ € 0,96 (24%)2012-12-17
Turtle's Little Oasis (41019)€ 4,95+ € 0,96 (24%)2012-12-17
Hedgehog's Hideaway (41020)€ 4,95+ € 0,96 (24%)2013-05-01
Poodle's Little Palace (41021)€ 4,95+ € 0,96 (24%)2013-05-01
Het hok van Konijn (41022)€ 4,95+ € 0,96 (24%)2013-05-01
Hertenkamp (41023)€ 4,95+ € 0,96 (24%)2013-10-06
Papegaaiennest (41024)€ 4,95+ € 0,96 (24%)2013-10-06
Puppy speelhuis (41025)€ 4,95+ € 0,96 (24%)2013-10-06
Sunshine Oogst (41026)€ 17,00- € 2,99 (15%)2013-12-27
Stephanie's lammetje (41029)€ 11,50+ € 1,51 (15%)2013-12-27
Junglewaterval reddingsactie (41033)€ 21,00+ € 1,01 (5%)2014-05-31
Heartlake Juicebar (41035)€ 29,50- € 3,49 (11%)2013-12-27
Junglebrug reddingsactie (41036)€ 29,50- € 3,49 (11%)2014-05-31
LEGO® Friends Adventkalender (41040)€ 19,95- € 5,04 (20%)2014-09-02
Het paradijsje van Schildpad (41041)€ 4,95+ € 0,46 (10%)2013-12-27
De tempel van Tijger (41042)€ 4,95+ € 0,46 (10%)2013-12-27
De speeltuin van Pinguïn (41043)€ 4,95+ € 0,46 (10%)2013-12-27
De fontein van Papegaai (41044)€ 4,95+ € 0,46 (10%)2014-05-14
De bananenboom van Orang-oetan (41045)€ 4,95+ € 0,46 (10%)2014-05-14
De rivier van Bruine Beer (41046)€ 4,95+ € 0,46 (10%)2014-05-14
Zeehondenrots (41047)€ 4,95+ € 0,46 (10%)2014-09-02
Leeuwenwelp savanne (41048)€ 4,95+ € 0,46 (10%)2014-09-02
Panda bamboebos (41049)€ 4,95+ € 0,46 (10%)2014-09-02
Heartlake satellietwagen (41056)€ 29,50+ € 2,51 (9%)2013-12-27
Heartlake winkelcentrum (41058)€ 89,95- € 20,04 (18%)2014-05-31
Jasmines exotische paleis (41061)€ 29,99+ € 3,00 (11%)2014-12-23
Elsa's fonkelende ijskasteel (41062)€ 49,50+ € 4,51 (10%)2014-12-23
Rapunzels allermooiste dag (41065)€ 23,95- € 6,04 (20%)2016-05-26
Slee-avontuur met Anna & Kristoff (41066)€ 24,95- € 10,04 (29%)2015-12-04
Belle's betoverde kasteel (41067)€ 49,95- € 10,04 (17%)2016-05-26
Het kasteelfeest in Arendelle (41068)€ 52,95- € 17,04 (24%)2015-12-04
Een dag bij het zwembad met Treasure (41069)€ 6,49- € 3,50 (35%)2015-12-15
Stephanie’s pizzeria (41092)€ 9,95- € 0,04 (0%)2014-12-25
Heartlake vuurtoren (41094)€ 42,50- € 2,49 (6%)2014-12-25
Emma's huis (41095)€ 77,00+ € 2,01 (3%)2014-12-25
Heartlake luchtballon (41097)€ 26,49- € 6,50 (20%)2014-12-25
Andrea’s Toeristenkiosk (41098)€ 7,50- € 2,49 (25%)2015-06-01
Heartlake Skate Park (41099)€ 17,89- € 2,10 (11%)2015-06-01
LEGO® Friends Adventkalender (41102)€ 19,95- € 5,04 (20%)2015-09-01
Popster Opnamestudio (41103)€ 14,99--2015-06-01
Popster Podium (41105)€ 41,00- € 7,85 (16%)2015-06-01
Popster Toerbus (41106)€ 42,95- € 22,04 (34%)2015-06-01
Popster Limousine (41107)€ 46,50+ € 19,51 (72%)2015-06-01
Heartlake Supermarkt (41108)€ 39,95- € 5,04 (11%)2015-06-01
Heartlake Vliegveld (41109)€ 84,95- € 15,04 (15%)2015-06-01
Verjaardagsfeest (41110)€ 17,89- € 2,10 (11%)2015-12-15
Feesttrein (41111)€ 7,95- € 2,04 (20%)2015-12-15
Cadeauwinkel (41113)€ 3,99- € 2,00 (33%)2015-12-15
Schoonheidssalon (41114)€ 3,99- € 2,00 (33%)2015-12-15
Emma's atelier (41115)€ 7,99- € 2,00 (20%)2015-12-19
Olivia's onderzoeksvoertuig (41116)€ 14,50- € 3,49 (19%)2015-12-19
Popster tv-studio (41117)€ 16,75- € 3,24 (16%)2015-12-19
Heartlake supermarkt (41118)€ 28,95- € 6,04 (17%)2015-12-19
Heartlake cupcake café (41119)€ 36,95- € 8,04 (18%)2015-12-19
Avonturenkamp boogschieten (41120)€ 10,95+ € 0,96 (10%)2015-12-15
Avonturenkamp wildwatervaren (41121)€ 26,49- € 8,50 (24%)2015-12-15
Veulen wasplaats (41123)€ 9,95- € 0,04 (0%)2016-05-29
Heartlake puppy dagverblijf (41124)€ 33,83- € 1,16 (3%)2016-05-27
Paardendokter trailer (41125)€ 39,99--2016-05-27
Heartlake paardrijclub (41126)€ 49,00- € 20,99 (30%)2016-05-27
Pretpark spelletjeshal (41127)€ 14,75- € 3,24 (18%)2016-05-27
Pretpark hotdog-wagen (41129)€ 22,47- € 7,52 (25%)2016-05-27
Pretpark achtbaan (41130)€ 74,90- € 25,09 (25%)2016-05-27
LEGO® Friends adventkalender (41131)€ 14,99- € 10,00 (40%)2016-08-31
Heartlake feestwinkel (41132)€ 34,00- € 0,99 (3%)2016-05-29
Pretpark botsauto's (41133)€ 35,95- € 9,04 (20%)2016-05-29
Heartlake Theaterschool (41134)€ 79,95- € 10,04 (11%)2016-05-29
Daisy's schoonheidssalon (41140)€ 8,95- € 3,04 (25%)2015-12-15
Pumpkins koninklijke koets (41141)€ 9,99- € 2,00 (17%)2015-12-15
Palace Pets koninklijk kasteel (41142)€ 17,95- € 2,04 (10%)2015-12-19
Berry's keuken (41143)€ 6,75- € 1,24 (16%)2016-12-01
Petite's koninklijke stal (41144)€ 9,95- € 2,04 (17%)2016-12-01
Ariël en de toverspreuk (41145)€ 24,49- € 10,50 (30%)2017-05-20
Assepoesters betoverde avond (41146)€ 29,98- € 15,01 (33%)2017-05-20
Anna's sneeuwavontuur (41147)€ 16,99- € 3,00 (15%)2016-12-01
Elsa's magische ijspaleis (41148)€ 49,00- € 25,99 (35%)2016-12-01
Vaiana's eilandavontuur (41149)€ 22,97- € 7,02 (23%)2016-12-01
Vaiana's oceaanreis (41150)€ 27,92- € 17,07 (38%)2016-12-01
Laagste ooitMulan's trainingsdag (41151)€ 9,99- € 8,00 (44%)2017-12-05
Sprookjeskasteel van Doornroosje (41152)€ 31,86- € 13,13 (29%)2017-12-05
Ariel's koninklijke feestboot (41153)€ 43,99- € 11,00 (20%)2017-12-05
Assepoesters droomkasteel (41154)€ 60,99- € 24,00 (28%)2017-12-05
Laagste ooitElsa's marktavontuur (41155)€ 13,99- € 6,00 (30%)2017-12-05
Het waterdraak avontuur (41172)€ 24,99+ € 5,00 (25%)2016-03-01
De lavagrot van de vuurdraak (41175)€ 38,99- € 6,00 (13%)2016-03-01
De kostbare kristalmijn (41177)€ 19,95- € 10,04 (33%)2016-05-26
Koninginnendraak redding (41179)€ 67,95- € 12,04 (15%)2016-05-26
Ragana's magische schaduwkasteel (41180)€ 69,99- € 30,00 (30%)2016-05-26
Naida's gondel & de Goblin-dief (41181)€ 7,99- € 2,00 (20%)2017-03-01
Sophie Jones gevangen genomen (41182)€ 15,00- € 4,99 (25%)2017-03-01
De wrede draak van de Goblin-koning (41183)€ 19,98- € 15,01 (43%)2017-03-01
Aira's luchtschip & de jacht op het amulet (41184)€ 31,95- € 13,04 (29%)2017-03-01
Magische redding uit het Goblin-dorp (41185)€ 45,00- € 19,99 (31%)2017-03-01
Azari & de ontsnapping uit het goblinbos (41186)€ 12,97- € 7,02 (35%)2017-05-20
Rosalyns genezingsschuilplaats (41187)€ 34,99- € 15,00 (30%)2017-05-20
Ontsnapping uit het fort van de goblinkoning (41188)€ 49,98- € 30,01 (38%)2017-05-20
Laagste ooitEmily Jones en de adelaarontsnapping (41190)€ 14,99--2018-02-08
Naida en de waterschildpadhinderlaag (41191)€ 26,99--2018-02-08
Azari en de vangst van de vuurleeuw (41192)€ 34,99--2018-02-08
Laagste ooitAira en het lied van de winddraak (41193)€ 44,99--2018-02-08
De toren van Noctura en de redding van de aardvos (41194)€ 64,99--2018-02-08
Batgirl™ Batjet-achtervolging (41230)€ 19,95- € 5,04 (20%)2016-12-01
Harley Quinn™ schiet te hulp (41231)€ 17,50- € 17,49 (50%)2016-12-01
Superheldenschool (41232)€ 64,95- € 25,04 (28%)2016-12-01
Lashina™ tank (41233)€ 7,99- € 10,00 (56%)2016-12-01
Bumblebee™ helikopter (41234)€ 9,00- € 8,99 (50%)2016-12-01
Wonder Woman™ nachtverblijf (41235)€ 15,95- € 4,04 (20%)2016-12-01
Harley Quinn™ nachtverblijf (41236)€ 16,50- € 3,49 (17%)2017-05-24
Batgirl™ geheime bunker (41237)€ 29,98- € 20,01 (40%)2017-05-24
Lena Luthor™ Kryptomite™-fabriek (41238)€ 39,98- € 30,01 (43%)2017-05-24
Eclipso™ duister paleis (41239)€ 59,98- € 50,01 (45%)2017-05-24
Puppy kampioenschap (41300)€ 16,95- € 3,04 (15%)2016-12-01
Puppy optocht (41301)€ 14,95- € 3,04 (17%)2016-12-01
Puppy verzorgplek (41302)€ 3,99- € 1,00 (20%)2016-12-01
Puppy speeltuin (41303)€ 4,99--2016-12-01
Puppy verrassingen (41304)€ 4,99--2016-12-01
Emma's fotostudio (41305)€ 8,95- € 1,04 (10%)2016-12-01
Mia's strandscooter (41306)€ 8,95- € 1,04 (10%)2016-12-01
Olivia's laboratorium (41307)€ 9,99--2016-12-01
Stephanies vriendschap-taartjes (41308)€ 7,95- € 2,04 (20%)2016-12-01
Andrea's muzikale duet (41309)€ 8,99- € 1,00 (10%)2016-12-01
Heartlake pakjesdienst (41310)€ 15,95- € 4,04 (20%)2016-12-01
Heartlake pizzeria (41311)€ 20,71- € 9,28 (31%)2016-12-01
Heartlake sporthal (41312)€ 34,00- € 10,99 (24%)2016-12-01
Heartlake zwembad (41313)€ 36,99- € 13,00 (26%)2016-12-01
Stephanies huis (41314)€ 46,36- € 28,63 (38%)2016-12-01
Heartlake surfshop (41315)€ 13,86- € 6,13 (31%)2017-05-20
Andrea's speedboottransport (41316)€ 19,89- € 10,10 (34%)2017-05-20
Sunshine catamaran (41317)€ 46,90- € 28,09 (37%)2017-05-20
Heartlake ziekenhuis (41318)€ 64,89- € 35,10 (35%)2017-05-20
Wintersport koek-en-zopiewagen (41319)€ 18,06- € 6,93 (28%)2017-05-20
Heartlake yoghurtijswinkel (41320)€ 35,95- € 9,04 (20%)2017-05-20
Wintersport terreinwagen (41321)€ 14,50- € 3,49 (19%)2017-05-20
Wintersport ijsbaan (41322)€ 22,50- € 7,49 (25%)2017-05-20
Wintersport chalet (41323)€ 28,99- € 16,00 (36%)2017-05-20
Wintersport skilift (41324)€ 42,00- € 17,99 (30%)2017-05-20
Heartlake City speeltuin (41325)€ 44,99--2017-09-02
LEGO® Friends adventkalender (41326)€ 14,08- € 10,91 (44%)2017-08-01
Laagste ooitMia's slaapkamer (41327)€ 7,95- € 2,04 (20%)2017-12-05
Laagste ooitStephanie's slaapkamer (41328)€ 7,95- € 2,04 (20%)2017-12-05
Laagste ooitOlivia's luxe slaapkamer (41329)€ 11,95- € 3,04 (20%)2017-12-05
Laagste ooitStephanie's voetbaltraining (41330)€ 11,95- € 3,04 (20%)2017-12-05
Emma's kunstkraam (41332)€ 15,95- € 4,04 (20%)2017-12-05
Laagste ooitOlivia's missievoertuig (41333)€ 14,99- € 5,00 (25%)2017-12-05
Andrea's parkprestaties (41334)€ 20,99- € 9,00 (30%)2017-12-05
Mia's boomhut (41335)€ 25,99- € 9,00 (26%)2017-12-05
Laagste ooitEmma's kunstcafé (41336)€ 23,95- € 6,04 (20%)2017-12-05
Laagste ooitStephanie's sportstadion (41338)€ 31,95- € 8,04 (20%)2017-12-05
Mia's camper (41339)€ 44,99- € 15,00 (25%)2017-12-05
Vriendschapshuis (41340)€ 56,99- € 18,00 (24%)2017-12-05
Finn (41485)€ 9,99--2017-10-11
Laagste ooitLloyd (41487)€ 9,99--2017-09-22
Laagste ooitMeester Wu (41488)€ 9,99--2017-09-22
FLAIN (41500)€ 27,95+ € 22,96 (460%)2014-03-01
VULK (41501)€ 9,95+ € 4,96 (99%)2014-03-01
ZORCH (41502)€ 9,95+ € 4,96 (99%)2014-03-01
KRADER (41503)€ 12,95+ € 7,96 (160%)2014-03-01
Laagste ooitSEISMO (41504)€ 24,95+ € 19,96 (400%)2014-03-01
SHUFF (41505)€ 14,95+ € 9,96 (200%)2014-03-01
TESLO (41506)€ 21,95+ € 18,33 (506%)2014-03-01
Laagste ooitZAPTOR (41507)€ 19,95+ € 14,96 (300%)2014-03-01
Laagste ooitVOLECTRO (41508)€ 26,95+ € 21,96 (440%)2014-03-01
GLOMP (41518)€ 14,99+ € 10,00 (200%)2014-07-31
TORTS (41520)€ 14,99+ € 10,00 (200%)2014-08-02
MAGNIFO (41525)€ 14,99+ € 10,00 (200%)2014-08-02
Rokit (41527)€ 6,95+ € 1,96 (39%)2015-02-01
Niksput (41528)€ 6,95+ € 1,96 (39%)2015-02-01
Nurp-Naut (41529)€ 6,95+ € 1,96 (39%)2015-02-01
Meltus (41530)€ 7,95+ € 2,96 (59%)2015-02-01
Flamzer (41531)€ 6,95+ € 1,96 (39%)2015-02-01
Burnard (41532)€ 7,95+ € 2,96 (59%)2015-02-01
Globert (41533)€ 8,95+ € 3,96 (79%)2015-02-01
Vampos (41534)€ 8,95+ € 3,96 (79%)2015-02-01
Boogly (41535)€ 7,95+ € 2,96 (59%)2015-02-01
Gox (41536)€ 6,95+ € 1,96 (39%)2015-06-01
Jinky (41537)€ 6,95+ € 2,78 (67%)2015-06-01
Kamzo (41538)€ 6,95+ € 2,78 (67%)2015-06-01
Spugg (41542)€ 6,95+ € 2,78 (67%)2015-06-01
Turg (41543)€ 6,95+ € 1,96 (39%)2015-06-01
Tungster (41544)€ 6,95+ € 2,78 (67%)2015-06-01
Kramm (41545)€ 9,99+ € 5,00 (100%)2015-10-01
Forx (41546)€ 5,50+ € 0,51 (10%)2015-10-01
Wuzzo (41547)€ 5,50+ € 0,51 (10%)2015-10-01
Dribbal (41548)€ 9,99+ € 5,00 (100%)2015-10-01
Snax (41551)€ 4,95- € 0,04 (1%)2015-10-01
Berp (41552)€ 9,99+ € 5,00 (100%)2015-10-01
Vaka-Waka (41553)€ 4,95- € 0,04 (1%)2015-10-01
Kuffs (41554)€ 5,95+ € 1,96 (49%)2016-01-31
Busto (41555)€ 4,95+ € 0,96 (24%)2016-01-31
Tiketz (41556)€ 6,99+ € 3,00 (75%)2016-01-31
Camillot (41557)€ 6,95+ € 2,96 (74%)2016-01-31
Mixadel (41558)€ 6,99+ € 3,00 (75%)2016-01-31
Paladum (41559)€ 6,95+ € 2,96 (74%)2016-01-31
Jamzy (41560)€ 6,95+ € 2,96 (74%)2016-01-31
Tapsy (41561)€ 6,95+ € 2,96 (74%)2016-01-31
Trumpsy (41562)€ 5,50+ € 1,51 (38%)2016-01-31
Gobbol (41572)€ 4,95+ € 0,96 (24%)2016-10-01
Laagste ooitCompax (41574)€ 3,95- € 0,04 (1%)2016-10-01
Batman™ (41585)€ 8,75- € 1,24 (12%)2017-02-01
Batgirl™ (41586)€ 7,75- € 2,24 (22%)2017-02-01
Robin™ (41587)€ 8,95- € 1,04 (10%)2017-02-01
The Joker™ (41588)€ 7,75- € 2,24 (22%)2017-02-01
Captain America (41589)€ 7,75- € 2,24 (22%)2017-02-01
Iron Man (41590)€ 8,95- € 1,04 (10%)2017-02-01
Black Widow (41591)€ 7,75- € 2,24 (22%)2017-02-01
The Hulk (41592)€ 8,75- € 1,24 (12%)2017-02-01
Captain Jack Sparrow (41593)€ 8,95- € 1,04 (10%)2017-02-24
Captain Armando Salazar (41594)€ 7,98- € 2,01 (20%)2017-02-24
Belle (41595)€ 7,99- € 2,00 (20%)2017-02-03
Beast (41596)€ 6,90- € 3,09 (31%)2017-02-03
Laagste ooitThe Flash™ (41598)€ 7,95- € 2,04 (20%)2017-12-30
Wonder Woman™ (41599)€ 7,95- € 2,04 (20%)2017-12-30
Laagste ooitAquaman™ (41600)€ 7,95- € 2,04 (20%)2017-12-30
Laagste ooitCyborg™ (41601)€ 7,95- € 2,04 (20%)2017-12-30
Laagste ooitRey (41602)€ 7,95- € 2,04 (20%)2018-01-01
Laagste ooitKylo Ren™ (41603)€ 7,95- € 2,04 (20%)2018-01-01
4x4 Crawler Exclusive Edition (41999)€ 595,00+ € 415,01 (231%)2013-08-01

Ook niet meer leverbare sets laten zien